createdAt,value
2023-05-19T00:02:09.305Z,5.15
2023-05-19T00:07:03.007Z,7.20
2023-05-19T00:11:54.870Z,6.32
2023-05-19T00:16:47.547Z,6.38
2023-05-19T00:21:39.278Z,4.47
2023-05-19T00:26:31.135Z,5.53
2023-05-19T00:31:22.861Z,8.55
2023-05-19T00:36:14.658Z,5.13
2023-05-19T00:41:07.033Z,6.03
2023-05-19T00:45:58.661Z,3.05
2023-05-19T00:50:51.146Z,4.72
2023-05-19T00:55:42.959Z,5.72
2023-05-19T01:00:35.221Z,5.78
2023-05-19T01:05:27.068Z,4.95
2023-05-19T01:10:18.898Z,5.00
2023-05-19T01:15:11.158Z,6.82
2023-05-19T01:20:38.607Z,5.28
2023-05-19T01:25:58.113Z,3.10
2023-05-19T01:30:54.394Z,5.15
2023-05-19T01:35:47.572Z,6.32
2023-05-19T01:40:41.735Z,4.65
2023-05-19T01:45:34.488Z,5.25
2023-05-19T01:50:26.348Z,7.05
2023-05-19T01:55:18.265Z,10.23
2023-05-19T02:00:25.812Z,5.20
2023-05-19T02:05:31.416Z,8.00
2023-05-19T02:10:27.626Z,6.18
2023-05-19T02:15:26.802Z,6.10
2023-05-19T02:20:18.911Z,6.65
2023-05-19T02:25:11.411Z,4.43
2023-05-19T02:30:04.243Z,5.10
2023-05-19T02:34:56.614Z,4.50
2023-05-19T02:39:48.375Z,7.20
2023-05-19T02:44:40.207Z,5.40
2023-05-19T02:49:35.875Z,10.07
2023-05-19T02:54:27.540Z,7.15
2023-05-19T02:59:19.479Z,7.20
2023-05-19T03:04:11.262Z,6.28
2023-05-19T03:09:03.106Z,10.55
2023-05-19T03:13:54.693Z,4.60
2023-05-19T03:18:46.418Z,5.60
2023-05-19T03:23:38.065Z,6.05
2023-05-19T03:28:29.764Z,5.40
2023-05-19T03:33:21.495Z,4.80
2023-05-19T03:38:13.265Z,6.72
2023-05-19T03:43:04.939Z,4.40
2023-05-19T03:47:56.892Z,5.97
2023-05-19T03:52:48.880Z,7.95
2023-05-19T03:57:41.600Z,9.75
2023-05-19T04:02:33.402Z,7.10
2023-05-19T04:07:25.090Z,4.43
2023-05-19T04:12:16.897Z,3.10
2023-05-19T04:17:08.713Z,8.13
2023-05-19T04:22:00.285Z,3.13
2023-05-19T04:26:52.206Z,3.65
2023-05-19T04:31:45.139Z,4.63
2023-05-19T04:36:37.861Z,4.97
2023-05-19T04:41:29.768Z,6.20
2023-05-19T04:46:24.524Z,6.97
2023-05-19T04:51:17.758Z,4.82
2023-05-19T04:56:15.836Z,7.20
2023-05-19T05:06:01.490Z,3.28
2023-05-19T05:10:53.829Z,4.00
2023-05-19T05:15:45.679Z,4.88
2023-05-19T05:20:37.765Z,4.78
2023-05-19T05:25:29.803Z,5.18
2023-05-19T05:30:21.453Z,9.55
2023-05-19T05:35:13.310Z,5.63
2023-05-19T05:40:07.129Z,9.02
2023-05-19T05:44:58.805Z,7.50
2023-05-19T05:49:53.371Z,9.20
2023-05-19T05:54:46.355Z,6.80
2023-05-19T05:59:38.695Z,5.25
2023-05-19T06:04:31.162Z,8.20
2023-05-19T06:09:22.772Z,7.00
2023-05-19T06:14:14.424Z,5.38
2023-05-19T06:19:06.265Z,7.18
2023-05-19T06:23:58.090Z,6.68
2023-05-19T06:28:49.711Z,4.93
2023-05-19T06:33:41.363Z,4.88
2023-05-19T06:38:33.001Z,5.20
2023-05-19T06:43:25.841Z,9.32
2023-05-19T06:48:17.566Z,4.10
2023-05-19T06:53:09.282Z,9.55
2023-05-19T06:58:01.855Z,9.32
2023-05-19T07:02:53.763Z,5.10
2023-05-19T07:07:45.584Z,7.25
2023-05-19T07:12:37.200Z,6.15
2023-05-19T07:17:28.851Z,7.03
2023-05-19T07:22:21.179Z,11.50
2023-05-19T07:27:12.822Z,8.40
2023-05-19T07:32:04.875Z,7.38
2023-05-19T07:36:56.734Z,8.43
2023-05-19T07:41:52.827Z,6.20
2023-05-19T07:46:44.524Z,4.65
2023-05-19T07:51:36.292Z,7.07
2023-05-19T07:56:27.927Z,6.72
2023-05-19T08:01:19.589Z,3.85
2023-05-19T08:06:11.454Z,3.42
2023-05-19T08:11:04.594Z,3.20
2023-05-19T08:15:59.883Z,3.35
2023-05-19T08:20:51.839Z,2.90
2023-05-19T08:25:44.108Z,4.18
2023-05-19T08:30:35.868Z,4.18
2023-05-19T08:35:27.534Z,3.85
2023-05-19T08:40:20.184Z,4.82
2023-05-19T08:45:12.271Z,4.13
2023-05-19T08:50:07.843Z,6.30
2023-05-19T08:55:06.269Z,6.40
2023-05-19T08:59:58.813Z,4.50
2023-05-19T09:04:50.940Z,5.72
2023-05-19T09:09:44.100Z,5.88
2023-05-19T09:14:37.644Z,4.63
2023-05-19T09:19:30.174Z,3.28
2023-05-19T09:24:26.185Z,2.70
2023-05-19T09:29:18.449Z,2.33
2023-05-19T09:34:13.570Z,2.13
2023-05-19T09:39:13.330Z,2.33
2023-05-19T09:44:05.589Z,3.30
2023-05-19T09:48:58.699Z,5.05
2023-05-19T09:53:50.651Z,5.95
2023-05-19T09:58:42.803Z,4.65
2023-05-19T10:03:35.309Z,4.88
2023-05-19T10:08:29.920Z,5.93
2023-05-19T10:13:22.684Z,8.55
2023-05-19T10:18:17.772Z,10.05
2023-05-19T10:23:09.505Z,8.40
2023-05-19T10:28:15.199Z,10.93
2023-05-19T10:33:10.377Z,8.98
2023-05-19T10:38:29.862Z,9.05
2023-05-19T10:43:37.425Z,10.20
2023-05-19T10:48:34.684Z,6.50
2023-05-19T10:53:35.044Z,7.23
2023-05-19T10:58:44.690Z,8.18
2023-05-19T11:03:53.912Z,8.25
2023-05-19T11:08:45.657Z,6.93
2023-05-19T11:13:37.675Z,11.82
2023-05-19T11:18:31.750Z,8.45
2023-05-19T11:23:25.966Z,9.68
2023-05-19T11:28:19.977Z,6.93
2023-05-19T11:33:13.550Z,7.10
2023-05-19T11:38:06.666Z,7.22
2023-05-19T11:42:58.684Z,12.02
2023-05-19T11:48:01.939Z,10.20
2023-05-19T11:52:55.272Z,9.63
2023-05-19T11:58:04.056Z,7.40
2023-05-19T12:02:57.919Z,7.50
2023-05-19T12:07:51.492Z,9.77
2023-05-19T12:12:45.306Z,9.90
2023-05-19T12:17:37.056Z,5.55
2023-05-19T12:22:28.916Z,8.55
2023-05-19T12:27:24.417Z,10.05
2023-05-19T12:32:16.263Z,8.30
2023-05-19T12:37:08.338Z,5.75
2023-05-19T12:42:10.162Z,9.73
2023-05-19T12:47:05.912Z,9.20
2023-05-19T12:51:57.847Z,7.07
2023-05-19T12:56:52.719Z,9.88
2023-05-19T13:01:44.661Z,5.75
2023-05-19T13:06:36.360Z,11.70
2023-05-19T13:11:28.026Z,7.85
2023-05-19T13:16:19.649Z,8.27
2023-05-19T13:21:11.288Z,13.10
2023-05-19T13:26:05.048Z,11.48
2023-05-19T13:30:57.066Z,15.55
2023-05-19T13:35:49.374Z,18.38
2023-05-19T13:40:41.233Z,17.00
2023-05-19T13:45:33.016Z,16.83
2023-05-19T13:50:24.742Z,13.45
2023-05-19T13:55:16.691Z,10.38
2023-05-19T14:00:10.222Z,10.55
2023-05-19T14:05:01.951Z,12.77
2023-05-19T14:09:53.779Z,15.70
2023-05-19T14:14:45.496Z,13.18
2023-05-19T14:19:37.245Z,15.05
2023-05-19T14:24:28.863Z,12.05
2023-05-19T14:29:20.606Z,16.17
2023-05-19T14:34:12.267Z,12.13
2023-05-19T14:39:03.918Z,15.70
2023-05-19T14:43:56.224Z,14.48
2023-05-19T14:48:47.846Z,17.63
2023-05-19T14:53:39.441Z,13.15
2023-05-19T14:58:31.099Z,13.15
2023-05-19T15:03:23.299Z,15.43
2023-05-19T15:08:15.027Z,10.60
2023-05-19T15:13:06.656Z,13.75
2023-05-19T15:17:58.367Z,14.02
2023-05-19T15:22:50.105Z,13.13
2023-05-19T15:27:41.812Z,14.25
2023-05-19T15:32:33.917Z,10.77
2023-05-19T15:37:25.754Z,11.18
2023-05-19T15:42:17.472Z,9.88
2023-05-19T15:47:09.142Z,17.90
2023-05-19T15:52:00.869Z,8.77
2023-05-19T15:56:52.551Z,13.30
2023-05-19T16:01:44.402Z,13.00
2023-05-19T16:06:36.141Z,12.73
2023-05-19T16:11:27.964Z,14.90
2023-05-19T16:16:19.668Z,12.52
2023-05-19T16:21:11.319Z,14.40
2023-05-19T16:26:02.901Z,13.93
2023-05-19T16:31:00.859Z,10.75
2023-05-19T16:35:52.636Z,13.82
2023-05-19T16:40:44.767Z,15.27
2023-05-19T16:45:36.908Z,14.13
2023-05-19T16:50:28.553Z,15.90
2023-05-19T16:55:20.704Z,16.75
2023-05-19T17:00:13.330Z,17.60
2023-05-19T17:05:05.215Z,14.95
2023-05-19T17:09:57.042Z,12.88
2023-05-19T17:14:50.410Z,17.17
2023-05-19T17:19:42.850Z,12.27
2023-05-19T17:24:34.485Z,14.88
2023-05-19T17:29:27.928Z,10.60
2023-05-19T17:34:19.566Z,11.60
2023-05-19T17:39:11.415Z,16.80
2023-05-19T17:44:03.904Z,8.05
2023-05-19T17:48:55.774Z,7.95
2023-05-19T17:53:47.774Z,11.32
2023-05-19T17:58:39.686Z,12.35
2023-05-19T18:03:31.831Z,16.17
2023-05-19T18:08:23.886Z,11.43
2023-05-19T18:13:15.698Z,18.13
2023-05-19T18:18:07.875Z,12.02
2023-05-19T18:22:59.541Z,8.90
2023-05-19T18:27:51.357Z,11.10
2023-05-19T18:32:43.056Z,10.90
2023-05-19T18:37:34.998Z,12.52
2023-05-19T18:42:26.672Z,11.50
2023-05-19T18:47:19.776Z,13.48
2023-05-19T18:52:11.596Z,11.13
2023-05-19T18:57:04.968Z,13.65
2023-05-19T19:01:56.682Z,13.15
2023-05-19T19:06:49.010Z,9.23
2023-05-19T19:11:41.914Z,10.60
2023-05-19T19:16:34.152Z,13.20
2023-05-19T19:21:26.016Z,10.10
2023-05-19T19:26:17.729Z,14.93
2023-05-19T19:31:09.447Z,13.82
2023-05-19T19:36:01.504Z,10.82
2023-05-19T19:40:53.159Z,14.25
2023-05-19T19:45:44.891Z,10.95
2023-05-19T19:50:36.660Z,12.20
2023-05-19T19:55:29.935Z,21.45
2023-05-19T20:00:22.045Z,20.60
2023-05-19T20:05:14.821Z,13.52
2023-05-19T20:10:07.217Z,11.85
2023-05-19T20:14:58.885Z,11.02
2023-05-19T20:19:50.657Z,17.42
2023-05-19T20:24:42.337Z,11.38
2023-05-19T20:29:33.934Z,17.30
2023-05-19T20:34:26.027Z,14.88
2023-05-19T20:39:17.937Z,16.08
2023-05-19T20:44:10.431Z,11.52
2023-05-19T20:49:02.099Z,14.60
2023-05-19T20:53:53.728Z,9.65
2023-05-19T20:58:45.549Z,10.05
2023-05-19T21:03:37.257Z,11.15
2023-05-19T21:08:29.907Z,14.48
2023-05-19T21:13:21.606Z,14.55
2023-05-19T21:18:13.352Z,18.58
2023-05-19T21:23:05.437Z,16.63
2023-05-19T21:27:58.304Z,10.43
2023-05-19T21:32:50.044Z,14.35
2023-05-19T21:37:41.744Z,12.65
2023-05-19T21:42:33.646Z,9.95
2023-05-19T21:47:25.364Z,13.40
2023-05-19T21:52:17.097Z,13.02
2023-05-19T21:57:11.133Z,9.35
2023-05-19T22:02:02.826Z,11.52
2023-05-19T22:06:54.494Z,11.60
2023-05-19T22:11:46.332Z,15.68
2023-05-19T22:16:38.100Z,11.10
2023-05-19T22:21:29.859Z,16.67
2023-05-19T22:26:22.324Z,19.17
2023-05-19T22:31:14.086Z,15.05
2023-05-19T22:36:05.871Z,12.60
2023-05-19T22:40:57.535Z,15.68
2023-05-19T22:45:49.365Z,16.55
2023-05-19T22:50:41.473Z,14.70
2023-05-19T22:55:34.698Z,11.80
2023-05-19T23:00:26.651Z,14.75
2023-05-19T23:05:18.274Z,17.88
2023-05-19T23:10:11.569Z,15.77
2023-05-19T23:15:03.757Z,14.10
2023-05-19T23:19:55.751Z,19.25
2023-05-19T23:24:47.593Z,10.43
2023-05-19T23:29:39.248Z,15.63
2023-05-19T23:34:30.872Z,16.30
2023-05-19T23:39:25.149Z,11.13
2023-05-19T23:44:18.650Z,13.45
2023-05-19T23:49:10.246Z,20.27
2023-05-19T23:54:01.840Z,11.65
2023-05-19T23:58:53.457Z,12.48
